createdAt,value
2019-06-27T00:00:48.703Z,7.97
2019-06-27T00:03:17.878Z,7.37
2019-06-27T00:05:46.801Z,6.60
2019-06-27T00:08:16.374Z,6.30
2019-06-27T00:10:45.269Z,6.70
2019-06-27T00:13:14.072Z,6.80
2019-06-27T00:15:43.030Z,7.70
2019-06-27T00:18:11.950Z,7.90
2019-06-27T00:20:40.788Z,7.23
2019-06-27T00:23:09.763Z,6.10
2019-06-27T00:25:38.615Z,7.60
2019-06-27T00:28:07.583Z,6.97
2019-06-27T00:30:36.521Z,6.70
2019-06-27T00:33:05.485Z,6.50
2019-06-27T00:35:34.353Z,7.70
2019-06-27T00:38:03.355Z,7.20
2019-06-27T00:40:32.244Z,7.00
2019-06-27T00:43:01.359Z,7.87
2019-06-27T00:45:30.382Z,6.50
2019-06-27T00:47:59.284Z,7.80
2019-06-27T00:50:28.248Z,7.20
2019-06-27T00:52:57.050Z,6.80
2019-06-27T00:55:25.934Z,7.20
2019-06-27T00:57:54.863Z,7.00
2019-06-27T01:00:23.818Z,7.23
2019-06-27T01:02:52.866Z,7.23
2019-06-27T01:05:21.650Z,6.43
2019-06-27T01:07:51.006Z,8.20
2019-06-27T01:10:21.462Z,5.93
2019-06-27T01:12:50.380Z,6.40
2019-06-27T01:15:19.952Z,6.10
2019-06-27T01:17:48.954Z,5.20
2019-06-27T01:20:17.824Z,5.57
2019-06-27T01:22:46.752Z,6.03
2019-06-27T01:25:15.800Z,5.10
2019-06-27T01:27:44.690Z,5.50
2019-06-27T01:30:14.134Z,4.80
2019-06-27T01:32:42.964Z,4.30
2019-06-27T01:35:12.656Z,3.77
2019-06-27T01:37:41.810Z,3.70
2019-06-27T01:40:12.337Z,3.53
2019-06-27T01:42:41.216Z,3.13
2019-06-27T01:45:25.319Z,3.43
2019-06-27T01:47:54.228Z,3.13
2019-06-27T01:50:23.409Z,3.17
2019-06-27T01:52:52.316Z,3.37
2019-06-27T01:55:21.196Z,3.70
2019-06-27T01:57:50.624Z,3.77
2019-06-27T02:00:21.008Z,2.80
2019-06-27T02:02:50.033Z,3.47
2019-06-27T02:05:18.953Z,3.30
2019-06-27T02:07:47.907Z,2.73
2019-06-27T02:10:16.983Z,3.20
2019-06-27T02:12:45.874Z,3.57
2019-06-27T02:15:15.262Z,3.80
2019-06-27T02:17:44.157Z,3.20
2019-06-27T02:20:13.439Z,2.93
2019-06-27T02:22:42.446Z,3.30
2019-06-27T02:25:11.589Z,3.17
2019-06-27T02:27:40.505Z,2.70
2019-06-27T02:30:11.663Z,3.30
2019-06-27T02:32:40.497Z,3.40
2019-06-27T02:35:08.953Z,3.37
2019-06-27T02:37:37.345Z,3.90
2019-06-27T02:40:05.790Z,3.83
2019-06-27T02:42:34.601Z,3.17
2019-06-27T02:45:03.794Z,3.70
2019-06-27T02:47:32.689Z,3.70
2019-06-27T02:50:01.090Z,3.90
2019-06-27T02:52:29.883Z,3.47
2019-06-27T02:54:58.430Z,3.80
2019-06-27T02:57:26.796Z,3.40
2019-06-27T02:59:55.665Z,3.20
2019-06-27T03:02:24.527Z,3.17
2019-06-27T03:04:53.448Z,3.23
2019-06-27T03:07:22.302Z,3.10
2019-06-27T03:09:51.192Z,3.10
2019-06-27T03:12:20.107Z,2.97
2019-06-27T03:14:48.994Z,4.47
2019-06-27T03:17:17.852Z,3.07
2019-06-27T03:19:46.718Z,3.13
2019-06-27T03:22:15.545Z,3.90
2019-06-27T03:24:44.400Z,2.80
2019-06-27T03:27:13.257Z,3.40
2019-06-27T03:29:42.143Z,2.63
2019-06-27T03:32:11.113Z,2.80
2019-06-27T03:34:40.046Z,2.80
2019-06-27T03:37:08.907Z,2.90
2019-06-27T03:39:37.778Z,3.30
2019-06-27T03:42:06.592Z,3.07
2019-06-27T03:44:35.433Z,2.83
2019-06-27T03:47:05.134Z,3.20
2019-06-27T03:49:34.120Z,2.93
2019-06-27T03:52:03.017Z,3.20
2019-06-27T03:54:31.854Z,3.03
2019-06-27T03:57:00.737Z,2.53
2019-06-27T03:59:29.587Z,2.40
2019-06-27T04:01:58.453Z,2.77
2019-06-27T04:04:27.322Z,2.80
2019-06-27T04:06:56.196Z,2.27
2019-06-27T04:09:25.096Z,2.33
2019-06-27T04:11:53.978Z,2.73
2019-06-27T04:14:22.832Z,2.97
2019-06-27T04:16:51.765Z,2.60
2019-06-27T04:19:20.524Z,2.53
2019-06-27T04:21:49.439Z,2.60
2019-06-27T04:24:18.437Z,2.20
2019-06-27T04:26:47.272Z,3.63
2019-06-27T04:29:32.681Z,2.80
2019-06-27T04:31:46.745Z,2.83
2019-06-27T04:34:19.599Z,2.60
2019-06-27T04:36:46.120Z,2.43
2019-06-27T04:39:15.032Z,2.63
2019-06-27T04:41:43.862Z,2.50
2019-06-27T04:44:13.144Z,2.80
2019-06-27T04:46:41.982Z,2.80
2019-06-27T04:49:13.439Z,2.70
2019-06-27T04:51:41.434Z,2.70
2019-06-27T04:54:10.276Z,2.93
2019-06-27T04:56:39.150Z,2.00
2019-06-27T04:59:08.050Z,2.90
2019-06-27T05:01:36.915Z,2.53
2019-06-27T05:04:05.804Z,2.87
2019-06-27T05:06:34.676Z,2.53
2019-06-27T05:09:03.815Z,4.37
2019-06-27T05:11:32.758Z,2.70
2019-06-27T05:14:01.676Z,3.50
2019-06-27T05:16:30.605Z,2.60
2019-06-27T05:18:59.435Z,3.00
2019-06-27T05:21:28.265Z,2.43
2019-06-27T05:23:57.203Z,2.63
2019-06-27T05:26:26.180Z,2.30
2019-06-27T05:28:55.032Z,2.43
2019-06-27T05:31:23.970Z,2.97
2019-06-27T05:33:52.744Z,2.80
2019-06-27T05:36:21.694Z,2.43
2019-06-27T05:38:50.524Z,2.80
2019-06-27T05:41:19.337Z,2.77
2019-06-27T05:43:47.710Z,2.37
2019-06-27T05:46:16.084Z,2.13
2019-06-27T05:48:44.472Z,2.80
2019-06-27T05:51:12.832Z,3.00
2019-06-27T05:53:41.217Z,2.07
2019-06-27T05:56:09.569Z,2.20
2019-06-27T05:58:37.980Z,2.83
2019-06-27T06:01:06.355Z,2.83
2019-06-27T06:03:34.755Z,2.17
2019-06-27T06:06:03.386Z,2.30
2019-06-27T06:08:31.840Z,3.53
2019-06-27T06:11:00.314Z,2.33
2019-06-27T06:13:28.738Z,2.53
2019-06-27T06:16:00.858Z,2.53
2019-06-27T06:18:27.263Z,2.20
2019-06-27T06:20:55.675Z,3.13
2019-06-27T06:23:24.143Z,1.83
2019-06-27T06:25:52.559Z,2.47
2019-06-27T06:28:21.034Z,3.57
2019-06-27T06:30:49.491Z,2.47
2019-06-27T06:33:18.110Z,3.17
2019-06-27T06:35:46.689Z,2.50
2019-06-27T06:38:15.290Z,3.00
2019-06-27T06:40:43.741Z,2.30
2019-06-27T06:43:12.164Z,2.47
2019-06-27T06:45:40.805Z,2.10
2019-06-27T06:48:09.292Z,2.13
2019-06-27T06:50:37.819Z,3.10
2019-06-27T06:53:06.159Z,2.80
2019-06-27T06:55:34.596Z,2.10
2019-06-27T06:58:03.006Z,2.53
2019-06-27T07:00:31.466Z,2.73
2019-06-27T07:02:59.921Z,2.10
2019-06-27T07:05:28.259Z,2.90
2019-06-27T07:07:56.722Z,3.63
2019-06-27T07:10:25.175Z,3.00
2019-06-27T07:12:53.624Z,2.63
2019-06-27T07:15:21.995Z,2.73
2019-06-27T07:17:50.447Z,2.40
2019-06-27T07:20:19.161Z,2.40
2019-06-27T07:22:47.764Z,2.47
2019-06-27T07:25:16.243Z,2.70
2019-06-27T07:27:44.659Z,1.93
2019-06-27T07:30:13.092Z,2.10
2019-06-27T07:32:41.456Z,2.83
2019-06-27T07:35:10.035Z,2.83
2019-06-27T07:37:38.423Z,4.57
2019-06-27T07:40:07.109Z,2.10
2019-06-27T07:42:35.536Z,2.53
2019-06-27T07:45:04.078Z,3.10
2019-06-27T07:47:32.392Z,2.37
2019-06-27T07:50:00.866Z,2.77
2019-06-27T07:52:29.261Z,3.17
2019-06-27T07:54:57.844Z,2.43
2019-06-27T07:57:26.316Z,3.00
2019-06-27T07:59:54.674Z,3.00
2019-06-27T08:02:23.182Z,3.30
2019-06-27T08:04:51.806Z,2.20
2019-06-27T08:07:21.392Z,3.23
2019-06-27T08:09:49.897Z,2.60
2019-06-27T08:12:18.281Z,2.00
2019-06-27T08:14:46.656Z,3.10
2019-06-27T08:17:15.032Z,3.10
2019-06-27T08:19:43.512Z,2.43
2019-06-27T08:22:11.927Z,2.33
2019-06-27T08:24:41.796Z,2.40
2019-06-27T08:27:10.828Z,2.47
2019-06-27T08:29:41.451Z,2.33
2019-06-27T08:32:11.229Z,2.27
2019-06-27T08:34:40.827Z,2.53
2019-06-27T08:37:09.964Z,2.50
2019-06-27T08:39:38.880Z,2.40
2019-06-27T08:42:07.783Z,2.67
2019-06-27T08:44:36.678Z,2.27
2019-06-27T08:47:05.566Z,2.33
2019-06-27T08:49:34.518Z,2.17
2019-06-27T08:52:02.993Z,2.87
2019-06-27T08:54:31.457Z,2.33
2019-06-27T08:56:59.909Z,2.13
2019-06-27T08:59:28.401Z,2.10
2019-06-27T09:02:08.110Z,2.43
2019-06-27T09:04:26.964Z,2.73
2019-06-27T09:06:55.422Z,2.50
2019-06-27T09:09:23.822Z,2.60
2019-06-27T09:11:52.226Z,2.03
2019-06-27T09:14:20.640Z,1.93
2019-06-27T09:16:49.063Z,2.47
2019-06-27T09:19:17.569Z,2.23
2019-06-27T09:21:45.919Z,2.77
2019-06-27T09:24:14.394Z,2.50
2019-06-27T09:26:42.926Z,2.63
2019-06-27T09:29:11.384Z,2.40
2019-06-27T09:31:39.833Z,2.70
2019-06-27T09:34:08.268Z,2.10
2019-06-27T09:36:37.815Z,2.50
2019-06-27T09:39:06.612Z,2.73
2019-06-27T09:41:35.015Z,2.40
2019-06-27T09:44:03.424Z,2.57
2019-06-27T09:46:31.893Z,2.60
2019-06-27T09:49:00.417Z,2.53
2019-06-27T09:51:28.859Z,2.33
2019-06-27T09:53:57.323Z,2.10
2019-06-27T09:56:25.773Z,2.17
2019-06-27T09:58:55.643Z,2.90
2019-06-27T10:01:24.121Z,2.13
2019-06-27T10:03:52.600Z,2.70
2019-06-27T10:06:21.082Z,2.63
2019-06-27T10:08:49.589Z,2.30
2019-06-27T10:11:18.247Z,2.30
2019-06-27T10:13:46.738Z,2.00
2019-06-27T10:16:15.217Z,2.97
2019-06-27T10:18:43.599Z,1.70
2019-06-27T10:21:12.091Z,2.50
2019-06-27T10:23:40.544Z,1.93
2019-06-27T10:26:08.972Z,1.90
2019-06-27T10:28:37.426Z,3.20
2019-06-27T10:31:05.861Z,2.53
2019-06-27T10:33:34.281Z,2.57
2019-06-27T10:36:02.663Z,3.30
2019-06-27T10:38:31.140Z,2.43
2019-06-27T10:40:59.557Z,2.20
2019-06-27T10:43:28.076Z,2.70
2019-06-27T10:45:56.574Z,2.77
2019-06-27T10:48:25.018Z,2.67
2019-06-27T10:50:54.751Z,2.00
2019-06-27T10:53:23.363Z,1.93
2019-06-27T10:55:51.768Z,2.57
2019-06-27T10:58:20.172Z,2.83
2019-06-27T11:00:48.636Z,1.73
2019-06-27T11:03:17.092Z,2.33
2019-06-27T11:05:45.544Z,2.63
2019-06-27T11:08:13.876Z,2.20
2019-06-27T11:10:42.279Z,2.00
2019-06-27T11:13:10.743Z,2.10
2019-06-27T11:15:39.284Z,2.33
2019-06-27T11:18:07.820Z,2.10
2019-06-27T11:20:36.243Z,2.10
2019-06-27T11:23:04.708Z,2.40
2019-06-27T11:25:33.232Z,2.47
2019-06-27T11:28:01.710Z,2.63
2019-06-27T11:30:30.126Z,2.00
2019-06-27T11:32:58.524Z,2.00
2019-06-27T11:35:26.996Z,2.63
2019-06-27T11:37:55.378Z,2.03
2019-06-27T11:40:23.928Z,2.60
2019-06-27T11:42:52.512Z,3.70
2019-06-27T11:45:20.945Z,1.97
2019-06-27T11:47:49.322Z,1.80
2019-06-27T11:50:17.724Z,2.43
2019-06-27T11:52:47.419Z,2.13
2019-06-27T11:55:16.141Z,2.40
2019-06-27T11:57:44.645Z,2.07
2019-06-27T12:00:13.173Z,2.20
2019-06-27T12:02:41.581Z,2.23
2019-06-27T12:05:10.009Z,1.90
2019-06-27T12:07:38.420Z,2.23
2019-06-27T12:10:07.310Z,2.20
2019-06-27T12:12:35.893Z,1.60
2019-06-27T12:15:04.613Z,2.00
2019-06-27T12:17:33.005Z,1.80
2019-06-27T12:20:01.351Z,2.23
2019-06-27T12:22:29.869Z,1.80
2019-06-27T12:24:58.293Z,2.27
2019-06-27T12:27:26.749Z,2.00
2019-06-27T12:29:55.197Z,2.37
2019-06-27T12:32:23.698Z,1.90
2019-06-27T12:34:52.137Z,2.10
2019-06-27T12:37:20.573Z,1.73
2019-06-27T12:39:49.014Z,1.63
2019-06-27T12:42:31.533Z,1.57
2019-06-27T12:44:47.571Z,1.67
2019-06-27T12:47:15.981Z,1.90
2019-06-27T12:50:00.638Z,1.93
2019-06-27T12:52:14.563Z,1.60
2019-06-27T12:54:42.965Z,1.80
2019-06-27T12:57:11.429Z,2.10
2019-06-27T12:59:39.936Z,1.50
2019-06-27T13:02:11.471Z,2.17
2019-06-27T13:04:38.766Z,1.57
2019-06-27T13:07:07.261Z,1.73
2019-06-27T13:09:35.830Z,1.93
2019-06-27T13:12:04.296Z,2.03
2019-06-27T13:14:32.777Z,1.90
2019-06-27T13:17:01.139Z,2.00
2019-06-27T13:19:29.620Z,2.20
2019-06-27T13:21:58.020Z,1.67
2019-06-27T13:24:26.536Z,2.20
2019-06-27T13:26:55.631Z,1.80
2019-06-27T13:29:26.836Z,1.50
2019-06-27T13:31:54.211Z,1.60
2019-06-27T13:34:39.100Z,1.80
2019-06-27T13:36:53.099Z,1.80
2019-06-27T13:39:21.609Z,1.80
2019-06-27T13:41:50.547Z,1.57
2019-06-27T13:44:19.710Z,1.83
2019-06-27T13:46:48.676Z,1.90
2019-06-27T13:49:17.542Z,2.20
2019-06-27T13:51:45.999Z,1.90
2019-06-27T13:54:14.457Z,1.87
2019-06-27T13:56:43.312Z,2.03
2019-06-27T13:59:12.302Z,2.00
2019-06-27T14:01:40.732Z,1.70
2019-06-27T14:04:09.596Z,2.03
2019-06-27T14:06:41.243Z,2.33
2019-06-27T14:09:21.938Z,2.67
2019-06-27T14:11:39.649Z,1.87
2019-06-27T14:14:11.329Z,1.67
2019-06-27T14:16:38.326Z,1.73
2019-06-27T14:19:06.806Z,1.87
2019-06-27T14:21:35.558Z,2.10
2019-06-27T14:24:04.024Z,1.33
2019-06-27T14:26:32.415Z,1.60
2019-06-27T14:29:00.789Z,1.53
2019-06-27T14:31:29.306Z,1.33
2019-06-27T14:33:57.670Z,1.37
2019-06-27T14:36:26.096Z,1.47
2019-06-27T14:38:54.451Z,1.80
2019-06-27T14:41:22.970Z,2.03
2019-06-27T14:43:51.498Z,1.37
2019-06-27T14:46:19.951Z,1.77
2019-06-27T14:48:48.383Z,2.10
2019-06-27T14:51:16.839Z,1.37
2019-06-27T14:53:45.310Z,1.60
2019-06-27T14:56:13.833Z,1.47
2019-06-27T14:58:42.177Z,2.10
2019-06-27T15:01:10.635Z,1.70
2019-06-27T15:03:38.987Z,2.00
2019-06-27T15:06:07.464Z,1.70
2019-06-27T15:08:35.872Z,2.27
2019-06-27T15:11:04.404Z,1.50
2019-06-27T15:13:32.819Z,2.20
2019-06-27T15:16:11.131Z,2.27
2019-06-27T15:18:31.436Z,2.23
2019-06-27T15:21:00.177Z,2.00
2019-06-27T15:23:29.299Z,2.17
2019-06-27T15:25:58.333Z,1.73
2019-06-27T15:28:26.734Z,2.17
2019-06-27T15:30:55.240Z,2.10
2019-06-27T15:33:25.185Z,1.70
2019-06-27T15:35:54.217Z,1.90
2019-06-27T15:38:22.911Z,1.70
2019-06-27T15:40:54.955Z,2.10
2019-06-27T15:43:22.399Z,2.23
2019-06-27T15:45:59.878Z,1.77
2019-06-27T15:48:28.795Z,2.07
2019-06-27T15:51:00.234Z,4.47
2019-06-27T15:53:28.697Z,23.37
2019-06-27T15:55:57.183Z,9.47
2019-06-27T15:58:25.609Z,7.00
2019-06-27T16:00:54.856Z,4.00
2019-06-27T16:03:23.295Z,6.30
2019-06-27T16:06:04.930Z,2.33
2019-06-27T16:08:21.922Z,7.30
2019-06-27T16:10:50.972Z,3.57
2019-06-27T16:13:19.393Z,2.10
2019-06-27T16:15:47.907Z,2.13
2019-06-27T16:18:16.259Z,1.80
2019-06-27T16:20:44.729Z,2.33
2019-06-27T16:23:13.204Z,1.67
2019-06-27T16:25:41.628Z,2.20
2019-06-27T16:28:10.096Z,1.60
2019-06-27T16:30:38.616Z,1.47
2019-06-27T16:33:07.078Z,1.93
2019-06-27T16:35:35.588Z,1.47
2019-06-27T16:38:04.155Z,3.07
2019-06-27T16:40:32.738Z,1.83
2019-06-27T16:43:01.122Z,1.67
2019-06-27T16:45:29.632Z,1.60
2019-06-27T16:47:58.054Z,1.80
2019-06-27T16:50:26.624Z,1.83
2019-06-27T16:52:55.007Z,1.60
2019-06-27T16:55:23.558Z,4.83
2019-06-27T16:57:51.968Z,2.03
2019-06-27T17:00:20.722Z,4.03
2019-06-27T17:02:49.120Z,1.53
2019-06-27T17:05:17.582Z,1.27
2019-06-27T17:07:46.177Z,1.50
2019-06-27T17:10:15.592Z,1.67
2019-06-27T17:12:44.090Z,12.07
2019-06-27T17:15:12.986Z,4.30
2019-06-27T17:17:41.356Z,2.83
2019-06-27T17:20:09.914Z,1.40
2019-06-27T17:22:38.566Z,2.07
2019-06-27T17:25:07.073Z,1.40
2019-06-27T17:27:35.503Z,1.50
2019-06-27T17:30:04.946Z,1.53
2019-06-27T17:32:33.337Z,1.13
2019-06-27T17:35:01.746Z,1.23
2019-06-27T17:37:30.174Z,1.10
2019-06-27T17:39:58.587Z,1.43
2019-06-27T17:42:26.984Z,1.47
2019-06-27T17:44:55.470Z,1.40
2019-06-27T17:47:23.961Z,1.40
2019-06-27T17:49:52.415Z,1.47
2019-06-27T17:52:21.075Z,1.60
2019-06-27T17:54:49.548Z,2.17
2019-06-27T17:57:18.041Z,1.77
2019-06-27T17:59:46.477Z,1.30
2019-06-27T18:02:15.943Z,1.67
2019-06-27T18:04:44.457Z,1.90
2019-06-27T18:07:14.642Z,2.27
2019-06-27T18:09:43.044Z,1.67
2019-06-27T18:12:11.517Z,1.90
2019-06-27T18:14:39.956Z,1.53
2019-06-27T18:17:08.395Z,4.07
2019-06-27T18:19:36.776Z,2.93
2019-06-27T18:22:05.186Z,5.60
2019-06-27T18:24:33.581Z,3.20
2019-06-27T18:27:02.013Z,3.17
2019-06-27T18:29:30.389Z,3.23
2019-06-27T18:31:58.783Z,2.93
2019-06-27T18:34:27.142Z,2.80
2019-06-27T18:36:55.663Z,3.30
2019-06-27T18:39:24.013Z,6.63
2019-06-27T18:41:52.368Z,2.57
2019-06-27T18:44:20.768Z,2.07
2019-06-27T18:46:49.130Z,3.43
2019-06-27T18:49:17.607Z,4.17
2019-06-27T18:51:46.159Z,3.07
2019-06-27T18:54:14.595Z,3.13
2019-06-27T18:56:43.157Z,11.00
2019-06-27T18:59:11.623Z,8.80
2019-06-27T19:01:40.059Z,2.37
2019-06-27T19:04:08.469Z,2.37
2019-06-27T19:06:36.982Z,2.77
2019-06-27T19:09:05.613Z,2.63
2019-06-27T19:11:34.099Z,2.40
2019-06-27T19:14:02.564Z,2.23
2019-06-27T19:16:31.010Z,2.00
2019-06-27T19:19:01.257Z,1.80
2019-06-27T19:21:48.874Z,1.90
2019-06-27T19:24:34.393Z,2.00
2019-06-27T19:27:03.080Z,1.97
2019-06-27T19:29:31.588Z,1.90
2019-06-27T19:31:59.996Z,1.83
2019-06-27T19:34:28.496Z,1.63
2019-06-27T19:36:56.857Z,2.10
2019-06-27T19:39:25.266Z,1.90
2019-06-27T19:41:56.956Z,2.17
2019-06-27T19:44:23.762Z,2.00
2019-06-27T19:46:52.220Z,1.83
2019-06-27T19:49:20.682Z,1.70
2019-06-27T19:51:49.134Z,1.80
2019-06-27T19:54:17.656Z,1.80
2019-06-27T19:56:46.369Z,1.90
2019-06-27T19:59:14.749Z,2.67
2019-06-27T20:01:43.125Z,2.37
2019-06-27T20:04:12.438Z,2.57
2019-06-27T20:06:41.235Z,2.93
2019-06-27T20:09:09.683Z,2.43
2019-06-27T20:11:38.305Z,1.70
2019-06-27T20:14:06.694Z,1.80
2019-06-27T20:16:35.367Z,1.87
2019-06-27T20:19:06.012Z,2.03
2019-06-27T20:21:34.993Z,2.10
2019-06-27T20:24:04.332Z,2.03
2019-06-27T20:26:33.226Z,1.70
2019-06-27T20:29:02.197Z,2.00
2019-06-27T20:31:31.286Z,1.83
2019-06-27T20:34:00.282Z,2.07
2019-06-27T20:36:29.211Z,2.10
2019-06-27T20:38:58.141Z,1.90
2019-06-27T20:41:29.293Z,1.80
2019-06-27T20:43:57.647Z,1.67
2019-06-27T20:46:26.895Z,2.00
2019-06-27T20:48:55.798Z,2.33
2019-06-27T20:51:24.213Z,1.90
2019-06-27T20:53:53.205Z,2.03
2019-06-27T20:56:22.161Z,1.73
2019-06-27T20:58:51.075Z,2.13
2019-06-27T21:01:19.977Z,2.40
2019-06-27T21:03:48.845Z,2.33
2019-06-27T21:06:18.112Z,2.40
2019-06-27T21:08:51.641Z,2.17
2019-06-27T21:11:18.426Z,2.00
2019-06-27T21:13:47.409Z,2.27
2019-06-27T21:16:16.336Z,2.87
2019-06-27T21:18:45.196Z,2.10
2019-06-27T21:21:14.061Z,1.90
2019-06-27T21:23:42.949Z,2.50
2019-06-27T21:26:11.866Z,2.60
2019-06-27T21:28:40.779Z,1.90
2019-06-27T21:31:09.768Z,2.33
2019-06-27T21:33:38.704Z,2.00
2019-06-27T21:36:07.702Z,2.30
2019-06-27T21:38:36.568Z,2.00
2019-06-27T21:41:05.551Z,2.13
2019-06-27T21:43:34.936Z,2.20
2019-06-27T21:46:04.247Z,2.47
2019-06-27T21:48:33.114Z,2.10
2019-06-27T21:51:02.044Z,3.00
2019-06-27T21:53:30.919Z,2.17
2019-06-27T21:55:59.922Z,2.23
2019-06-27T21:58:28.784Z,2.40
2019-06-27T22:00:57.895Z,2.30
2019-06-27T22:03:26.952Z,2.07
2019-06-27T22:05:55.898Z,2.83
2019-06-27T22:08:24.778Z,2.87
2019-06-27T22:10:53.785Z,2.13
2019-06-27T22:13:22.618Z,2.73
2019-06-27T22:15:51.491Z,2.30
2019-06-27T22:18:20.328Z,2.30
2019-06-27T22:20:49.190Z,2.60
2019-06-27T22:23:18.076Z,2.30
2019-06-27T22:25:46.935Z,2.67
2019-06-27T22:28:17.400Z,2.50
2019-06-27T22:30:46.296Z,2.90
2019-06-27T22:33:15.459Z,2.47
2019-06-27T22:35:44.270Z,2.50
2019-06-27T22:38:30.863Z,2.33
2019-06-27T22:41:18.632Z,2.27
2019-06-27T22:44:05.356Z,2.50
2019-06-27T22:46:52.304Z,2.47
2019-06-27T22:49:20.454Z,3.07
2019-06-27T22:52:20.682Z,2.00
2019-06-27T22:54:51.954Z,2.13
2019-06-27T22:57:20.897Z,3.07
2019-06-27T22:59:49.791Z,2.90
2019-06-27T23:02:18.679Z,2.50
2019-06-27T23:04:47.649Z,2.73
2019-06-27T23:07:16.558Z,2.80
2019-06-27T23:09:56.520Z,2.87
2019-06-27T23:12:15.996Z,3.50
2019-06-27T23:14:44.881Z,2.80
2019-06-27T23:17:13.797Z,2.83
2019-06-27T23:19:42.619Z,2.60
2019-06-27T23:22:11.537Z,2.87
2019-06-27T23:24:39.933Z,2.80
2019-06-27T23:27:08.807Z,2.73
2019-06-27T23:29:38.597Z,2.93
2019-06-27T23:32:07.571Z,3.30
2019-06-27T23:34:36.562Z,2.57
2019-06-27T23:37:05.357Z,3.10
2019-06-27T23:39:34.165Z,3.20
2019-06-27T23:42:02.991Z,2.80
2019-06-27T23:44:32.018Z,3.30
2019-06-27T23:47:00.815Z,3.37
2019-06-27T23:49:29.718Z,3.57
2019-06-27T23:51:59.217Z,2.50
2019-06-27T23:54:28.051Z,3.20
2019-06-27T23:56:56.953Z,3.33
2019-06-27T23:59:25.878Z,3.27
